Terminal Aerodrome Forecast
Issued by NWS Rapid City, SD

Home | Current Version | Previous Version | Text Only | Print | Product List | Glossary On
Versions: 1 2 3 4 5 6 7 8 9 10 11 12
528
FTUS43 KUNR 232320
TAFRAP
TAF
KRAP 232320Z 2400/2424 33020G30KT P6SM SCT050
     FM240200 34010KT P6SM SCT070=

USA.gov is the U.S. government's official web portal to all federal, state and local government web resources and services.